Home > Products > Valid Products > TAF

000
FTUS44 KLUB 250500
TAFCDS
TAF
KCDS 250520Z 2506/2606 13006KT P6SM FEW250
     FM251500 19020G30KT P6SM FEW300=



000
FTUS44 KLUB 250500
TAFLBB
TAF
KLBB 250520Z 2506/2606 17007KT P6SM SCT250
     FM251400 20020G30KT P6SM FEW300=



000
FTUS44 KLUB 242300
TAFCDS
TAF
KCDS 242320Z 2500/2524 10006KT P6SM FEW200
     FM251500 19020G30KT P6SM FEW300=



000
FTUS44 KLUB 242300
TAFLBB
TAF
KLBB 242320Z 2500/2524 17006KT P6SM SCT250
     FM251400 20020G30KT P6SM FEW300=



000
FTUS44 KLUB 241700 CCA
TAFCDS
TAF COR
KCDS 241736Z 2418/2518 34016KT P6SM SKC
     FM242200 15006KT P6SM SCT350
     FM251500 19014KT P6SM FEW350=



000
FTUS44 KLUB 241700 CCA
TAFLBB
TAF COR
KLBB 241736Z 2418/2518 34016KT P6SM SKC
     FM250000 15006KT P6SM SCT350
     FM251500 19015G25KT P6SM FEW350=



000
FTUS44 KLUB 241700
TAFCDS
TAF
KCDS 241720Z 2418/2518 34016KT P6SM SKC
     FM242200 15006KT P6SM SKC
     FM251500 19014KT P6SM FEW350=



000
FTUS44 KLUB 241700
TAFLBB
TAF
KLBB 241720Z 2418/2518 34016KT P6SM SKC
     FM250000 15006KT P6SM SKC
     FM251500 19015G25KT P6SM FEW350=



000
FTUS44 KLUB 241100
TAFCDS
TAF
KCDS 241120Z 2412/2512 33016KT 5SM BLDU SCT250
     FM241400 34023KT P6SM SKC
     FM242300 15006KT P6SM SKC=



000
FTUS44 KLUB 241100
TAFLBB
TAF
KLBB 241120Z 2412/2512 34016KT 4SM BLDU SKC
     FM241400 36020KT P6SM SKC
     FM242100 12007KT P6SM SKC=



000
FTUS44 KLUB 240900 AAA
TAFCDS
TAF AMD
KCDS 240945Z 2410/2506 35022KT P6SM SKC
     FM242300 02006KT P6SM SCT250=



000
FTUS44 KLUB 240500
TAFLBB
TAF
KLBB 240520Z 2406/2506 28016KT P6SM SKC
     FM241000 35020KT P6SM SKC
     FM242200 01008KT P6SM SCT250=



000
FTUS44 KLUB 240500
TAFCDS
TAF
KCDS 240520Z 2406/2506 17016KT P6SM FEW150
     FM241200 35022KT P6SM SKC
     FM242300 02006KT P6SM SCT250=



000
FTUS44 KLUB 232300
TAFLBB
TAF
KLBB 232338Z 2400/2424 24015G25KT P6SM SCT200
     FM240300 25016KT P6SM SCT250
     FM240900 35016KT P6SM FEW300=



000
FTUS44 KLUB 232300
TAFCDS
TAF
KCDS 232338Z 2400/2424 16014G20KT P6SM FEW080 SCT200
     FM241000 34016KT P6SM SKC
      TEMPO 2412/2416 34024KT=



000
FTUS44 KLUB 231700
TAFLBB
TAF
KLBB 231721Z 2318/2418 20018G28KT P6SM FEW100 BKN200
     FM240300 25016KT P6SM SKC
     FM240800 36016KT P6SM FEW350=



000
FTUS44 KLUB 231700
TAFCDS
TAF
KCDS 231721Z 2318/2418 18018G26KT P6SM SCT080 BKN200
     FM232000 16015G25KT P6SM SCT070 BKN140
      TEMPO 2322/2401 3SM TSRA BKN050CB
     FM240200 19016KT P6SM SCT150
     FM240700 35016KT P6SM SKC=



000
FTUS44 KLUB 231100
TAFLBB
TAF
KLBB 231127Z 2312/2412 17014KT P6SM BKN150
     FM231500 20020G28KT P6SM FEW100 BKN200=



000
FTUS44 KLUB 231100
TAFCDS
TAF
KCDS 231127Z 2312/2412 16013KT P6SM SCT150 BKN200
     FM231500 18018G26KT P6SM SCT080 BKN200 PROB30 2321/2401 3SM
      -TSRA BKN050CB=



000
FTUS44 KLUB 230500
TAFLBB
TAF
KLBB 230520Z 2306/2406 16015KT P6SM FEW100 SCT200
     FM231500 20020G28KT P6SM FEW100 SCT200=



000
FTUS44 KLUB 230500
TAFCDS
TAF
KCDS 230520Z 2306/2406 15013KT P6SM FEW100 SCT200
     FM231500 18018G26KT P6SM SCT080 SCT200=



000
FTUS44 KLUB 222300
TAFCDS
TAF
KCDS 222324Z 2300/2324 16015G20KT P6SM FEW200
     FM231200 18010KT P6SM FEW200
     FM231700 18018G26KT P6SM SCT090 SCT200=



000
FTUS44 KLUB 222300
TAFLBB
TAF
KLBB 222324Z 2300/2324 15014KT P6SM SCT200
     FM231500 20018G26KT P6SM FEW110 SCT300=



000
FTUS44 KLUB 221700
TAFLBB
TAF
KLBB 221720Z 2218/2318 16015KT P6SM SCT200
     FM230000 18010KT P6SM FEW110
     FM231500 20015G25KT P6SM FEW110 SCT300=



000
FTUS44 KLUB 221700
TAFCDS
TAF
KCDS 221720Z 2218/2318 15011KT P6SM FEW120
     FM231400 18010KT P6SM FEW150 FEW300=



000
FTUS44 KLUB 221100
TAFCDS
TAF
KCDS 221122Z 2212/2312 03005KT P6SM SKC
     FM221500 15012KT P6SM SCT200=



000
FTUS44 KLUB 221100
TAFLBB
TAF
KLBB 221122Z 2212/2312 08004KT P6SM SCT150
     FM221500 15016KT P6SM SCT200=



    US Dept of Commerce
    National Oceanic and Atmospheric Administration
    National Weather Service
    1325 East West Highway
    Silver Spring, MD 20910
    Page Author: NWS Internet Services Team
Disclaimer
Information Quality
Credits
Glossary
Privacy Policy
Freedom of Information Act (FOIA)
About Us
Career Opportunities